Time;durP1;ratioP1;P1;durP2;ratioP2;P2;SDS_P1;SDS_P2;PMS_P1;PMS_P2;Temp;Humidity;BMP_temperature;BMP_pressure;BME280_temperature;BME280_humidity;BME280_pressure;Samples;Min_cycle;Max_cycle;Signal;HPM_P1;HPM_P2
2023/03/09 00:00:32;;;;;;;8.15;3.30;;;2.10;99.90;;;;;;5004877;28;20061;-36
2023/03/09 00:02:58;;;;;;;17.60;2.97;;;2.10;99.90;;;;;;5004623;28;20053;-37
2023/03/09 00:05:24;;;;;;;6.97;3.00;;;2.10;99.90;;;;;;5006808;28;20100;-36
2023/03/09 00:07:50;;;;;;;7.43;2.88;;;2.00;99.90;;;;;;5006072;28;20061;-38
2023/03/09 00:10:16;;;;;;;6.90;3.08;;;2.00;99.90;;;;;;5004510;28;20447;-36
2023/03/09 00:12:42;;;;;;;7.82;3.05;;;2.00;99.90;;;;;;5005349;28;20123;-36
2023/03/09 00:15:09;;;;;;;6.32;2.65;;;2.00;99.90;;;;;;5004821;28;20060;-37
2023/03/09 00:17:35;;;;;;;6.80;3.08;;;1.90;99.90;;;;;;5000099;28;20511;-37
2023/03/09 00:20:15;;;;;;;6.05;2.80;;;1.90;99.90;;;;;;5007051;28;20054;-36
2023/03/09 00:22:41;;;;;;;6.43;3.05;;;1.90;99.90;;;;;;5003940;28;20557;-37
2023/03/09 00:25:07;;;;;;;6.25;3.17;;;1.90;99.90;;;;;;5008756;28;20107;-36
2023/03/09 00:27:33;;;;;;;6.57;2.95;;;1.80;99.90;;;;;;5007078;28;20074;-37
2023/03/09 00:29:59;;;;;;;7.25;3.13;;;1.80;99.90;;;;;;5007126;28;20080;-36
2023/03/09 00:32:25;;;;;;;6.15;2.78;;;1.80;99.90;;;;;;5003646;28;20496;-37
2023/03/09 00:34:50;;;;;;;4.10;2.08;;;1.80;99.90;;;;;;5004790;28;20046;-36
2023/03/09 00:37:16;;;;;;;5.47;2.58;;;1.80;99.90;;;;;;5004312;28;20500;-37
2023/03/09 00:39:41;;;;;;;5.65;2.65;;;1.80;99.90;;;;;;5004862;28;20404;-36
2023/03/09 00:42:07;;;;;;;6.20;2.65;;;1.80;99.90;;;;;;5004067;28;20061;-36
2023/03/09 00:44:33;;;;;;;6.70;3.30;;;1.80;99.90;;;;;;5003177;28;20050;-36
2023/03/09 00:46:58;;;;;;;6.65;3.10;;;1.80;99.90;;;;;;5003293;28;20057;-36
2023/03/09 00:49:24;;;;;;;7.50;3.55;;;1.80;99.90;;;;;;5007456;28;20184;-36
2023/03/09 00:51:50;;;;;;;6.00;3.05;;;1.70;99.90;;;;;;5002566;28;20049;-35
2023/03/09 00:54:16;;;;;;;5.63;2.85;;;1.70;99.90;;;;;;5001924;28;20058;-36
2023/03/09 00:56:42;;;;;;;6.80;3.13;;;1.70;99.90;;;;;;5004624;28;20123;-36
2023/03/09 00:59:08;;;;;;;6.53;2.75;;;1.60;99.90;;;;;;4997343;28;20492;-38
2023/03/09 01:01:33;;;;;;;5.10;2.55;;;1.60;99.90;;;;;;4999232;28;20050;-37
2023/03/09 01:03:59;;;;;;;6.18;3.00;;;1.60;99.90;;;;;;4999364;28;20121;-35
2023/03/09 01:06:25;;;;;;;6.43;3.13;;;1.60;99.90;;;;;;5006385;28;20488;-37
2023/03/09 01:08:52;;;;;;;6.22;2.92;;;1.60;99.90;;;;;;5007113;28;20112;-36
2023/03/09 01:11:18;;;;;;;6.55;2.92;;;1.60;99.90;;;;;;5004450;28;20042;-37
2023/03/09 01:13:44;;;;;;;7.75;3.63;;;1.60;99.90;;;;;;5002555;28;20076;-36
2023/03/09 01:16:10;;;;;;;9.73;3.42;;;1.60;99.90;;;;;;4992753;28;20054;-36
2023/03/09 01:18:36;;;;;;;6.18;3.30;;;1.60;99.90;;;;;;5003744;28;20049;-36
2023/03/09 01:21:02;;;;;;;8.50;3.38;;;1.60;99.90;;;;;;5005524;28;20050;-36
2023/03/09 01:23:28;;;;;;;7.05;3.38;;;1.50;99.90;;;;;;5002800;28;20499;-36
2023/03/09 01:25:54;;;;;;;7.00;3.00;;;1.50;99.90;;;;;;5005073;28;20141;-36
2023/03/09 01:28:19;;;;;;;7.65;3.10;;;1.50;99.90;;;;;;5000955;28;20128;-36
2023/03/09 01:30:45;;;;;;;7.53;3.75;;;1.50;99.90;;;;;;5003088;28;20144;-36
2023/03/09 01:33:11;;;;;;;7.97;3.75;;;1.50;99.90;;;;;;5004619;28;20108;-36
2023/03/09 01:35:38;;;;;;;9.68;3.88;;;1.50;99.90;;;;;;5000760;28;20046;-36
2023/03/09 01:38:04;;;;;;;7.53;3.40;;;1.50;99.90;;;;;;4997134;28;20050;-36
2023/03/09 01:40:31;;;;;;;7.43;3.55;;;1.50;99.90;;;;;;5004951;28;20078;-36
2023/03/09 01:42:59;;;;;;;8.50;3.83;;;1.50;99.90;;;;;;5006661;28;20639;-37
2023/03/09 01:45:24;;;;;;;9.95;3.95;;;1.50;99.90;;;;;;5001026;28;20089;-36
2023/03/09 01:47:50;;;;;;;9.27;4.20;;;1.50;99.90;;;;;;5002746;28;20085;-36
2023/03/09 01:50:30;;;;;;;8.93;4.47;;;1.40;99.90;;;;;;5005682;28;20056;-36
2023/03/09 01:53:00;;;;;;;9.23;4.13;;;1.40;99.90;;;;;;5003602;28;20082;-36
2023/03/09 01:55:35;;;;;;;8.23;3.95;;;1.40;99.90;;;;;;5003176;28;20049;-36
2023/03/09 01:58:13;;;;;;;7.40;3.60;;;1.40;99.90;;;;;;4992369;28;20050;-36
2023/03/09 02:00:42;;;;;;;9.23;3.58;;;1.40;99.90;;;;;;4998292;28;20045;-36
2023/03/09 02:03:12;;;;;;;9.02;4.32;;;1.40;99.90;;;;;;4999610;28;20069;-36
2023/03/09 02:05:46;;;;;;;8.77;4.10;;;1.40;99.90;;;;;;5002988;28;20164;-36
2023/03/09 02:08:12;;;;;;;8.00;4.10;;;1.40;99.90;;;;;;5001639;28;20153;-36
2023/03/09 02:10:54;;;;;;;8.80;3.97;;;1.40;99.90;;;;;;5004528;28;20609;-36
2023/03/09 02:13:24;;;;;;;8.90;4.20;;;1.40;99.90;;;;;;4996758;28;20058;-36
2023/03/09 02:15:50;;;;;;;8.95;4.35;;;1.40;99.90;;;;;;4999039;28;20151;-36
2023/03/09 02:18:15;;;;;;;8.88;4.18;;;1.40;99.90;;;;;;5003352;28;20566;-38
2023/03/09 02:21:27;;;;;;;8.30;4.28;;;1.40;99.90;;;;;;5001933;28;20050;-35
2023/03/09 02:24:11;;;;;;;8.07;3.92;;;1.40;99.90;;;;;;4957041;28;20585;-35
2023/03/09 02:26:40;;;;;;;9.30;4.25;;;1.40;99.90;;;;;;4959151;28;20145;-36
2023/03/09 02:29:06;;;;;;;9.77;4.72;;;1.40;99.90;;;;;;4988851;28;20534;-36
2023/03/09 02:31:31;;;;;;;8.45;3.90;;;1.40;99.90;;;;;;5003182;28;20049;-36
2023/03/09 02:33:57;;;;;;;12.00;4.85;;;1.40;99.90;;;;;;5005820;28;20503;-36
2023/03/09 02:36:23;;;;;;;8.20;4.07;;;1.40;99.90;;;;;;5003895;28;20499;-35
2023/03/09 02:38:49;;;;;;;7.78;4.00;;;1.40;99.90;;;;;;5003119;28;20053;-36
2023/03/09 02:41:17;;;;;;;11.82;4.18;;;1.40;99.90;;;;;;5008392;28;20455;-36
2023/03/09 02:43:54;;;;;;;8.55;3.85;;;1.40;99.90;;;;;;5006078;28;20492;-38
2023/03/09 02:46:20;;;;;;;9.90;4.05;;;1.40;99.90;;;;;;5010721;28;20073;-36
2023/03/09 02:48:46;;;;;;;8.90;3.38;;;1.40;99.90;;;;;;5010369;28;20074;-36
2023/03/09 02:51:12;;;;;;;8.40;4.07;;;1.40;99.90;;;;;;5005893;28;20459;-36
2023/03/09 02:53:38;;;;;;;7.60;3.67;;;1.40;99.90;;;;;;5005232;28;20487;-36
2023/03/09 02:56:04;;;;;;;9.82;4.32;;;1.40;99.90;;;;;;5008485;28;20089;-36
2023/03/09 02:58:29;;;;;;;10.07;4.15;;;1.40;99.90;;;;;;5005346;28;20128;-36
2023/03/09 03:00:55;;;;;;;8.73;4.00;;;1.40;99.90;;;;;;5003136;28;20524;-37
2023/03/09 03:03:21;;;;;;;7.60;3.55;;;1.40;99.90;;;;;;5003627;28;20072;-35
2023/03/09 03:05:47;;;;;;;7.25;3.22;;;1.40;99.90;;;;;;5006686;28;20050;-36
2023/03/09 03:08:13;;;;;;;8.77;4.07;;;1.40;99.90;;;;;;5003080;28;20057;-35
2023/03/09 03:10:39;;;;;;;8.80;4.00;;;1.40;99.90;;;;;;5003409;28;20407;-37
2023/03/09 03:13:04;;;;;;;8.68;4.05;;;1.40;99.90;;;;;;5005452;28;20068;-36
2023/03/09 03:15:30;;;;;;;9.30;4.13;;;1.40;99.90;;;;;;5006223;28;20129;-41
2023/03/09 03:17:56;;;;;;;8.73;4.53;;;1.40;99.90;;;;;;5002156;28;20062;-36
2023/03/09 03:20:22;;;;;;;8.15;4.13;;;1.40;99.90;;;;;;5007890;28;20163;-38
2023/03/09 03:22:49;;;;;;;8.75;4.00;;;1.40;99.90;;;;;;5004653;28;20141;-36
2023/03/09 03:25:16;;;;;;;7.90;3.50;;;1.40;99.90;;;;;;5008930;28;20042;-36
2023/03/09 03:27:42;;;;;;;8.10;3.72;;;1.40;99.90;;;;;;5005443;28;20579;-36
2023/03/09 03:30:09;;;;;;;8.38;3.88;;;1.40;99.90;;;;;;5006047;28;20050;-36
2023/03/09 03:32:35;;;;;;;8.77;3.85;;;1.40;99.90;;;;;;5006667;28;20054;-36
2023/03/09 03:35:01;;;;;;;9.20;3.88;;;1.40;99.90;;;;;;5007503;28;20061;-36
2023/03/09 03:37:26;;;;;;;10.02;3.85;;;1.40;99.90;;;;;;5004169;28;20077;-36
2023/03/09 03:39:52;;;;;;;9.02;4.43;;;1.40;99.90;;;;;;4997577;28;20192;-36
2023/03/09 03:42:18;;;;;;;8.35;4.13;;;1.40;99.90;;;;;;5005227;28;20522;-36
2023/03/09 03:44:43;;;;;;;11.07;3.97;;;1.40;99.90;;;;;;5007738;28;20077;-36
2023/03/09 03:47:09;;;;;;;8.93;3.90;;;1.40;99.90;;;;;;5007242;28;20057;-36
2023/03/09 03:49:35;;;;;;;8.15;3.67;;;1.40;99.90;;;;;;5003294;28;20050;-36
2023/03/09 03:52:01;;;;;;;10.50;4.35;;;1.40;99.90;;;;;;5006917;28;20054;-37
2023/03/09 03:54:26;;;;;;;8.30;4.22;;;1.40;99.90;;;;;;5002505;28;20073;-37
2023/03/09 03:56:52;;;;;;;8.90;4.18;;;1.40;99.90;;;;;;5003748;28;20054;-37
2023/03/09 03:59:18;;;;;;;9.35;4.10;;;1.40;99.90;;;;;;5004984;28;20048;-37
2023/03/09 04:01:43;;;;;;;7.75;3.63;;;1.40;99.90;;;;;;5008574;28;20268;-37
2023/03/09 04:04:09;;;;;;;9.60;4.25;;;1.40;99.90;;;;;;5004510;28;20038;-37
2023/03/09 04:06:35;;;;;;;7.93;3.83;;;1.40;99.90;;;;;;5004909;28;20061;-36
2023/03/09 04:09:01;;;;;;;10.38;4.05;;;1.40;99.90;;;;;;5000277;28;20049;-36
2023/03/09 04:11:27;;;;;;;7.75;3.47;;;1.40;99.90;;;;;;5004940;28;20137;-36
2023/03/09 04:13:53;;;;;;;10.32;4.63;;;1.40;99.90;;;;;;5008083;28;20064;-37
2023/03/09 04:16:18;;;;;;;8.27;3.53;;;1.40;99.90;;;;;;5005646;28;20058;-36
2023/03/09 04:18:44;;;;;;;10.48;3.90;;;1.40;99.90;;;;;;5003573;28;20152;-36
2023/03/09 04:21:10;;;;;;;9.65;4.07;;;1.40;99.90;;;;;;5000506;28;20057;-36
2023/03/09 04:23:35;;;;;;;8.07;4.18;;;1.40;99.90;;;;;;4999852;28;20054;-36
2023/03/09 04:26:04;;;;;;;8.38;4.18;;;1.40;99.90;;;;;;4998802;28;20053;-35
2023/03/09 04:28:30;;;;;;;8.88;3.28;;;1.40;99.90;;;;;;5003644;28;20053;-37
2023/03/09 04:30:56;;;;;;;10.43;4.32;;;1.40;99.90;;;;;;5007194;28;20426;-35
2023/03/09 04:33:21;;;;;;;8.05;3.67;;;1.40;99.90;;;;;;5005842;28;20140;-35
2023/03/09 04:35:47;;;;;;;7.25;3.47;;;1.40;99.90;;;;;;5005898;28;20046;-35
2023/03/09 04:38:14;;;;;;;8.68;3.63;;;1.40;99.90;;;;;;5021981;28;20061;-35
2023/03/09 04:40:40;;;;;;;8.63;4.38;;;1.30;99.90;;;;;;5005906;28;20064;-38
2023/03/09 04:43:06;;;;;;;9.65;4.35;;;1.30;99.90;;;;;;5002572;28;20057;-35
2023/03/09 04:45:32;;;;;;;8.05;3.90;;;1.30;99.90;;;;;;5006092;28;20061;-35
2023/03/09 04:47:58;;;;;;;8.35;4.32;;;1.30;99.90;;;;;;5003671;28;20290;-36
2023/03/09 04:50:24;;;;;;;9.23;4.30;;;1.30;99.90;;;;;;5005504;28;20464;-36
2023/03/09 04:52:50;;;;;;;9.27;4.60;;;1.30;99.90;;;;;;4999783;28;20085;-36
2023/03/09 04:55:16;;;;;;;10.93;4.05;;;1.30;99.90;;;;;;5005029;28;20045;-36
2023/03/09 04:57:42;;;;;;;9.60;3.95;;;1.30;99.90;;;;;;5003741;28;20084;-40
2023/03/09 05:00:10;;;;;;;10.98;3.97;;;1.20;99.90;;;;;;4999464;28;20144;-36
2023/03/09 05:02:40;;;;;;;9.60;3.63;;;1.20;99.90;;;;;;5001607;28;20053;-45
2023/03/09 05:05:07;;;;;;;8.05;4.03;;;1.20;99.90;;;;;;5000976;28;20042;-37
2023/03/09 05:07:34;;;;;;;9.93;4.18;;;1.20;99.90;;;;;;5001906;28;20046;-41
2023/03/09 05:09:59;;;;;;;7.75;3.85;;;1.20;99.90;;;;;;5000595;28;20046;-37
2023/03/09 05:12:31;;;;;;;9.85;4.40;;;1.20;99.90;;;;;;5004293;28;20076;-37
2023/03/09 05:15:00;;;;;;;8.23;3.80;;;1.20;99.90;;;;;;5000475;28;20495;-36
2023/03/09 05:17:26;;;;;;;9.00;4.20;;;1.20;99.90;;;;;;5003133;28;20127;-36
2023/03/09 05:19:52;;;;;;;7.70;3.60;;;1.20;99.90;;;;;;5002673;28;20050;-37
2023/03/09 05:22:17;;;;;;;7.82;3.78;;;1.20;99.90;;;;;;5003586;28;20064;-36
2023/03/09 05:24:43;;;;;;;11.10;4.55;;;1.20;99.90;;;;;;5004534;28;20045;-36
2023/03/09 05:27:09;;;;;;;8.27;3.83;;;1.20;99.90;;;;;;5005747;28;20430;-37
2023/03/09 05:29:35;;;;;;;7.68;3.60;;;1.20;99.90;;;;;;5004894;28;20390;-36
2023/03/09 05:32:01;;;;;;;9.27;4.50;;;1.20;99.90;;;;;;5002272;28;20058;-36
2023/03/09 05:34:27;;;;;;;10.07;4.13;;;1.20;99.90;;;;;;5004720;28;20054;-37
2023/03/09 05:36:53;;;;;;;12.70;5.05;;;1.20;99.90;;;;;;5000754;28;20114;-36
2023/03/09 05:39:18;;;;;;;9.57;4.22;;;1.20;99.90;;;;;;5001993;28;20487;-36
2023/03/09 05:41:44;;;;;;;10.73;4.78;;;1.20;99.90;;;;;;5006744;28;20467;-37
2023/03/09 05:44:10;;;;;;;9.20;4.28;;;1.20;99.90;;;;;;5005343;28;20042;-37
2023/03/09 05:46:36;;;;;;;9.77;4.20;;;1.20;99.90;;;;;;5000775;28;20081;-37
2023/03/09 05:49:02;;;;;;;10.20;4.03;;;1.20;99.90;;;;;;5006660;28;20077;-36
2023/03/09 05:51:27;;;;;;;9.80;4.22;;;1.20;99.90;;;;;;5000935;28;20045;-36
2023/03/09 05:53:53;;;;;;;8.90;3.92;;;1.20;99.90;;;;;;4998452;28;20180;-41
2023/03/09 05:56:19;;;;;;;9.45;4.47;;;1.20;99.90;;;;;;4999477;28;20415;-35
2023/03/09 05:58:48;;;;;;;10.48;3.70;;;1.30;99.90;;;;;;5004500;28;20116;-36
2023/03/09 06:01:25;;;;;;;7.97;4.13;;;1.30;99.90;;;;;;4999828;28;20050;-35
2023/03/09 06:03:52;;;;;;;9.98;5.20;;;1.30;99.90;;;;;;5003466;28;20154;-36
2023/03/09 06:06:18;;;;;;;13.70;5.15;;;1.20;99.90;;;;;;4996301;28;20176;-35
2023/03/09 06:08:44;;;;;;;11.38;4.82;;;1.20;99.90;;;;;;4999291;28;20103;-36
2023/03/09 06:11:11;;;;;;;11.60;5.03;;;1.20;99.90;;;;;;5000977;28;20050;-36
2023/03/09 06:13:36;;;;;;;10.32;4.90;;;1.30;99.90;;;;;;4999718;28;20540;-36
2023/03/09 06:16:06;;;;;;;10.90;4.78;;;1.20;99.90;;;;;;5004168;28;20550;-36
2023/03/09 06:18:33;;;;;;;9.88;4.75;;;1.20;99.90;;;;;;5007081;28;20050;-36
2023/03/09 06:21:03;;;;;;;11.85;4.95;;;1.20;99.90;;;;;;4999441;28;20049;-36
2023/03/09 06:23:30;;;;;;;11.70;5.25;;;1.30;99.90;;;;;;5007680;28;20069;-37
2023/03/09 06:25:56;;;;;;;12.93;5.60;;;1.30;99.90;;;;;;5006180;28;20065;-45
2023/03/09 06:28:22;;;;;;;10.63;4.80;;;1.30;99.90;;;;;;5007082;28;20064;-46
2023/03/09 06:30:48;;;;;;;10.95;5.25;;;1.30;99.90;;;;;;5004191;28;20133;-37
2023/03/09 06:33:14;;;;;;;10.43;4.68;;;1.30;99.90;;;;;;5004979;28;20581;-48
2023/03/09 06:35:40;;;;;;;10.60;5.30;;;1.30;99.90;;;;;;5006021;28;20057;-42
2023/03/09 06:38:06;;;;;;;12.27;5.78;;;1.30;99.90;;;;;;5011416;28;20049;-42
2023/03/09 06:40:32;;;;;;;12.43;5.82;;;1.40;99.90;;;;;;5004293;28;20054;-41
2023/03/09 06:42:58;;;;;;;12.07;5.82;;;1.40;99.90;;;;;;5008895;28;20061;-42
2023/03/09 06:45:24;;;;;;;11.27;5.53;;;1.30;99.90;;;;;;5007505;28;20541;-41
2023/03/09 06:47:56;;;;;;;9.75;5.13;;;1.30;99.90;;;;;;5004256;28;20602;-42
2023/03/09 06:50:22;;;;;;;;;;;1.40;99.90;;;;;;5000107;28;20061;-37
2023/03/09 06:52:48;;;;;;;10.52;5.10;;;1.40;99.90;;;;;;5007784;28;19930;-37
2023/03/09 06:55:14;;;;;;;12.23;5.07;;;1.40;99.90;;;;;;5006943;28;20431;-38
2023/03/09 06:57:39;;;;;;;10.18;5.10;;;1.50;99.90;;;;;;5005327;28;20061;-38
2023/03/09 07:00:07;;;;;;;11.60;5.55;;;1.50;99.90;;;;;;5000006;28;20053;-37
2023/03/09 07:02:33;;;;;;;11.80;5.70;;;1.50;99.90;;;;;;4999523;28;20545;-42
2023/03/09 07:04:59;;;;;;;15.10;5.53;;;1.60;99.90;;;;;;5016114;28;20510;-41
2023/03/09 07:07:24;;;;;;;15.80;5.90;;;1.60;99.90;;;;;;4998351;28;20057;-45
2023/03/09 07:09:50;;;;;;;12.43;5.57;;;1.70;99.90;;;;;;5000240;28;20068;-36
2023/03/09 07:12:16;;;;;;;10.68;5.63;;;1.70;99.90;;;;;;5002934;28;20172;-38
2023/03/09 07:14:42;;;;;;;11.05;5.47;;;1.70;99.90;;;;;;5001427;28;20484;-39
2023/03/09 07:17:13;;;;;;;12.40;6.22;;;1.80;99.90;;;;;;5001293;28;20550;-38
2023/03/09 07:19:38;;;;;;;11.73;5.68;;;1.80;99.90;;;;;;5001210;28;20065;-37
2023/03/09 07:22:06;;;;;;;13.15;5.95;;;1.80;99.90;;;;;;4999590;28;20065;-38
2023/03/09 07:24:34;;;;;;;12.63;6.15;;;1.80;99.90;;;;;;5004626;28;20535;-39
2023/03/09 07:27:00;;;;;;;13.35;5.50;;;1.80;99.90;;;;;;5012497;28;20538;-42
2023/03/09 07:29:26;;;;;;;12.48;5.60;;;1.80;99.90;;;;;;4995900;28;20049;-42
2023/03/09 07:31:51;;;;;;;12.10;5.95;;;1.80;99.90;;;;;;5001759;28;20053;-41
2023/03/09 07:34:17;;;;;;;12.55;5.93;;;1.90;99.90;;;;;;5003445;28;20060;-41
2023/03/09 07:36:43;;;;;;;12.60;6.07;;;1.90;99.90;;;;;;5007677;28;20134;-44
2023/03/09 07:39:09;;;;;;;13.88;6.90;;;2.00;99.90;;;;;;5002350;28;20121;-41
2023/03/09 07:41:34;;;;;;;16.23;6.45;;;2.00;99.90;;;;;;5005928;28;20129;-41
2023/03/09 07:44:00;;;;;;;14.45;6.22;;;2.10;99.90;;;;;;5006304;28;20046;-40
2023/03/09 07:46:26;;;;;;;14.43;6.75;;;2.10;99.90;;;;;;5004981;28;20061;-45
2023/03/09 07:48:52;;;;;;;12.68;6.30;;;2.20;99.90;;;;;;4999830;28;20542;-40
2023/03/09 07:51:18;;;;;;;13.52;6.32;;;2.20;99.90;;;;;;5002991;28;20053;-40
2023/03/09 07:53:44;;;;;;;13.18;5.90;;;2.30;99.90;;;;;;4998557;28;20053;-40
2023/03/09 07:56:10;;;;;;;13.35;6.82;;;2.30;99.90;;;;;;5020878;28;20049;-43
2023/03/09 07:58:39;;;;;;;12.93;6.35;;;2.30;99.90;;;;;;5003294;28;20407;-37
2023/03/09 08:01:07;;;;;;;11.63;5.43;;;2.40;99.90;;;;;;4996844;28;20555;-37
2023/03/09 08:03:35;;;;;;;13.98;6.55;;;2.40;99.90;;;;;;5016056;28;20045;-36
2023/03/09 08:06:03;;;;;;;11.80;5.80;;;2.40;99.90;;;;;;4998325;28;20137;-36
2023/03/09 08:08:28;;;;;;;12.10;5.97;;;2.50;99.90;;;;;;4993058;28;20069;-38
2023/03/09 08:10:54;;;;;;;11.95;5.60;;;2.50;99.90;;;;;;4997892;28;20480;-38
2023/03/09 08:13:21;;;;;;;12.07;5.53;;;2.50;99.90;;;;;;5005870;28;20444;-39
2023/03/09 08:15:48;;;;;;;11.10;5.38;;;2.60;99.90;;;;;;5017996;28;20056;-38
2023/03/09 08:18:14;;;;;;;11.75;5.88;;;2.60;99.90;;;;;;5001108;28;20046;-38
2023/03/09 08:20:40;;;;;;;11.63;6.15;;;2.60;99.90;;;;;;5001995;28;20050;-38
2023/03/09 08:23:06;;;;;;;13.20;6.38;;;2.70;99.90;;;;;;5001061;28;20519;-38
2023/03/09 08:25:33;;;;;;;12.15;6.05;;;2.70;99.90;;;;;;5021714;28;20092;-39
2023/03/09 08:27:59;;;;;;;11.85;5.75;;;2.80;99.90;;;;;;4997641;28;20064;-37
2023/03/09 08:30:25;;;;;;;11.55;5.88;;;2.80;99.90;;;;;;4999458;28;20511;-38
2023/03/09 08:32:53;;;;;;;11.32;5.35;;;2.80;99.90;;;;;;4999035;28;20508;-37
2023/03/09 08:35:21;;;;;;;10.85;5.68;;;2.90;99.90;;;;;;4990734;28;20123;-37
2023/03/09 08:37:47;;;;;;;11.70;6.00;;;3.00;99.90;;;;;;5001755;28;20136;-37
2023/03/09 08:40:14;;;;;;;10.48;5.70;;;3.00;99.90;;;;;;5001247;28;20144;-38
2023/03/09 08:42:40;;;;;;;11.05;5.30;;;3.10;99.90;;;;;;5009803;28;20049;-37
2023/03/09 08:45:07;;;;;;;12.00;6.07;;;3.10;99.90;;;;;;4998067;28;20069;-37
2023/03/09 08:47:33;;;;;;;12.65;6.07;;;3.20;99.90;;;;;;5001756;28;20070;-37
2023/03/09 08:49:58;;;;;;;11.23;4.90;;;3.20;99.90;;;;;;4999947;28;20061;-37
2023/03/09 08:52:24;;;;;;;10.93;5.40;;;3.20;99.90;;;;;;5003024;28;20638;-37
2023/03/09 08:54:50;;;;;;;11.70;5.78;;;3.20;99.90;;;;;;4990902;28;20053;-43
2023/03/09 08:57:16;;;;;;;10.85;5.57;;;3.20;99.90;;;;;;5003612;28;20049;-37
2023/03/09 08:59:42;;;;;;;11.38;6.40;;;3.30;99.90;;;;;;4999380;28;20049;-38
2023/03/09 09:02:14;;;;;;;12.13;6.07;;;3.30;99.90;;;;;;4999145;28;20046;-37
2023/03/09 09:04:41;;;;;;;10.82;6.10;;;3.40;99.90;;;;;;5000690;28;20492;-37
2023/03/09 09:07:08;;;;;;;13.20;6.25;;;3.40;99.90;;;;;;5000320;28;21137;-37
2023/03/09 09:09:34;;;;;;;10.75;5.50;;;3.40;99.90;;;;;;4999810;28;20492;-38
2023/03/09 09:11:59;;;;;;;10.90;5.72;;;3.40;99.90;;;;;;5004637;28;20046;-37
2023/03/09 09:14:25;;;;;;;12.05;6.30;;;3.40;99.90;;;;;;5005666;28;20062;-37
2023/03/09 09:16:51;;;;;;;10.70;5.65;;;3.50;99.90;;;;;;5000690;28;20108;-37
2023/03/09 09:19:17;;;;;;;11.52;5.40;;;3.60;99.90;;;;;;5006805;28;20487;-37
2023/03/09 09:21:43;;;;;;;10.98;5.35;;;3.60;99.90;;;;;;5006584;28;20053;-37
2023/03/09 09:24:09;;;;;;;11.63;5.50;;;3.70;99.90;;;;;;4996222;28;20057;-38
2023/03/09 09:26:35;;;;;;;11.90;5.80;;;3.70;99.90;;;;;;4996344;28;20377;-38
2023/03/09 09:29:01;;;;;;;10.63;4.88;;;3.80;99.90;;;;;;4999133;28;20672;-37
2023/03/09 09:31:28;;;;;;;13.38;6.63;;;3.80;99.90;;;;;;4991133;28;20058;-38
2023/03/09 09:33:54;;;;;;;11.05;5.53;;;3.80;99.90;;;;;;4997215;28;20057;-43
2023/03/09 09:36:20;;;;;;;12.32;5.15;;;3.80;99.90;;;;;;4992401;28;20184;-37
2023/03/09 09:38:47;;;;;;;11.98;6.10;;;3.80;99.90;;;;;;4999899;28;20056;-38
2023/03/09 09:41:19;;;;;;;9.82;5.05;;;3.80;99.90;;;;;;5004125;28;20069;-38
2023/03/09 09:43:49;;;;;;;9.52;5.30;;;3.80;99.90;;;;;;5006253;28;20133;-37
2023/03/09 09:46:17;;;;;;;9.75;5.25;;;3.90;99.90;;;;;;4998536;28;20054;-37
2023/03/09 09:48:44;;;;;;;10.05;5.35;;;3.90;99.90;;;;;;5004268;28;20061;-37
2023/03/09 09:51:31;;;;;;;10.45;5.43;;;3.90;99.90;;;;;;5002037;28;20124;-37
2023/03/09 09:54:23;;;;;;;11.48;5.35;;;3.90;99.90;;;;;;5001539;28;20057;-43
2023/03/09 09:56:54;;;;;;;10.43;5.20;;;4.00;99.90;;;;;;4998206;28;20088;-41
2023/03/09 09:59:47;;;;;;;13.73;6.50;;;4.00;99.90;;;;;;4999936;28;20049;-41
2023/03/09 10:02:22;;;;;;;12.40;6.32;;;4.10;99.90;;;;;;4992571;28;21918;-41
2023/03/09 10:05:15;;;;;;;10.18;5.68;;;4.10;99.90;;;;;;5006271;28;21333;-42
2023/03/09 10:07:41;;;;;;;15.48;5.50;;;4.10;99.90;;;;;;5002232;28;20166;-41
2023/03/09 10:10:17;;;;;;;10.35;5.13;;;4.10;99.90;;;;;;4994077;28;20129;-40
2023/03/09 10:12:44;;;;;;;12.93;6.43;;;4.10;99.90;;;;;;4996284;28;20058;-36
2023/03/09 10:15:23;;;;;;;9.85;5.57;;;4.20;99.90;;;;;;4999601;28;20427;-37
2023/03/09 10:18:18;;;;;;;12.93;5.82;;;4.30;99.90;;;;;;5001274;28;20141;-35
2023/03/09 10:20:52;;;;;;;11.15;5.38;;;4.30;99.90;;;;;;4993919;28;20050;-37
2023/03/09 10:23:30;;;;;;;10.45;5.35;;;4.20;99.90;;;;;;4997706;28;20057;-37
2023/03/09 10:26:05;;;;;;;11.05;5.57;;;4.20;99.90;;;;;;4996087;28;20200;-36
2023/03/09 10:28:37;;;;;;;13.23;5.78;;;4.20;99.90;;;;;;4994914;28;20049;-36
2023/03/09 10:31:20;;;;;;;10.75;5.45;;;4.30;99.90;;;;;;4996944;28;22075;-36
2023/03/09 10:33:50;;;;;;;14.45;6.28;;;4.30;99.90;;;;;;4999482;28;20515;-36
2023/03/09 10:36:24;;;;;;;10.45;5.35;;;4.40;99.90;;;;;;5007942;28;20511;-37
2023/03/09 10:38:52;;;;;;;11.38;5.50;;;4.30;99.90;;;;;;4998562;28;20041;-36
2023/03/09 10:41:21;;;;;;;11.77;5.85;;;4.30;99.90;;;;;;5000509;28;20788;-36
2023/03/09 10:43:46;;;;;;;12.65;6.78;;;4.30;99.90;;;;;;4997930;28;20112;-36
2023/03/09 10:46:18;;;;;;;12.82;6.32;;;4.30;99.90;;;;;;5011246;28;20058;-36
2023/03/09 10:48:46;;;;;;;11.85;6.45;;;4.30;99.90;;;;;;4993948;28;20411;-36
2023/03/09 10:51:23;;;;;;;11.63;5.95;;;4.30;99.90;;;;;;5017059;28;20053;-36
2023/03/09 10:53:49;;;;;;;12.13;5.82;;;4.40;99.90;;;;;;4996144;28;20499;-37
2023/03/09 10:56:19;;;;;;;12.50;5.95;;;4.40;99.90;;;;;;4995427;28;20065;-38
2023/03/09 10:58:44;;;;;;;11.73;5.93;;;4.40;99.90;;;;;;4996465;28;20176;-37
2023/03/09 11:01:16;;;;;;;11.77;5.82;;;4.40;99.90;;;;;;4995538;28;20062;-37
2023/03/09 11:03:43;;;;;;;12.80;6.70;;;4.40;99.90;;;;;;4994230;28;20058;-38
2023/03/09 11:06:25;;;;;;;11.88;5.82;;;4.30;99.90;;;;;;5001750;28;20057;-38
2023/03/09 11:09:05;;;;;;;11.45;6.03;;;4.20;99.90;;;;;;5002801;28;20050;-46
2023/03/09 11:11:31;;;;;;;11.07;5.35;;;4.20;99.90;;;;;;5005943;28;20061;-46
2023/03/09 11:13:57;;;;;;;12.20;6.07;;;4.20;99.90;;;;;;5006783;28;20412;-45
2023/03/09 11:16:27;;;;;;;12.88;6.45;;;4.20;99.90;;;;;;5006161;28;20049;-44
2023/03/09 11:19:25;;;;;;;14.25;6.22;;;4.30;99.90;;;;;;5003457;28;20080;-44
2023/03/09 11:21:57;;;;;;;12.27;6.20;;;4.40;99.90;;;;;;4978837;28;20054;-45
2023/03/09 11:24:39;;;;;;;11.07;5.30;;;4.40;99.90;;;;;;5000309;28;20067;-44
2023/03/09 11:27:25;;;;;;;12.20;5.97;;;4.40;99.90;;;;;;5004625;28;20064;-44
2023/03/09 11:30:10;;;;;;;10.40;5.28;;;4.50;99.90;;;;;;5002169;28;20054;-51
2023/03/09 11:32:36;;;;;;;10.82;6.38;;;4.60;99.90;;;;;;5003909;28;20502;-45
2023/03/09 11:35:02;;;;;;;12.00;5.78;;;4.60;99.90;;;;;;5002873;28;20038;-50
2023/03/09 11:37:28;;;;;;;10.18;5.70;;;4.60;99.90;;;;;;4998094;28;20057;-49
2023/03/09 11:40:11;;;;;;;13.50;7.03;;;4.70;99.90;;;;;;5007387;28;20046;-43
2023/03/09 11:42:41;;;;;;;10.70;5.90;;;4.80;99.90;;;;;;4997362;28;20050;-47
2023/03/09 11:45:23;;;;;;;12.07;5.90;;;4.80;99.90;;;;;;5001017;28;20058;-45
2023/03/09 11:47:56;;;;;;;15.38;6.45;;;4.80;99.90;;;;;;5000631;28;20511;-45
2023/03/09 11:50:24;;;;;;;11.88;5.97;;;4.80;99.90;;;;;;5002856;28;20467;-46
2023/03/09 11:52:59;;;;;;;11.73;6.03;;;4.70;99.90;;;;;;5001264;28;20053;-42
2023/03/09 11:55:34;;;;;;;12.80;6.15;;;4.60;99.90;;;;;;4997473;28;20057;-46
2023/03/09 11:58:03;;;;;;;12.43;6.25;;;4.60;99.90;;;;;;4999893;28;20045;-37
2023/03/09 12:00:31;;;;;;;11.88;5.82;;;4.60;99.90;;;;;;4998206;28;20632;-37
2023/03/09 12:03:09;;;;;;;10.38;5.25;;;4.60;99.90;;;;;;4987278;28;20503;-37
2023/03/09 12:05:39;;;;;;;12.77;6.50;;;4.60;99.90;;;;;;4996584;28;20053;-37
2023/03/09 12:08:11;;;;;;;11.82;5.75;;;4.60;99.90;;;;;;4998139;28;20527;-44
2023/03/09 12:11:00;;;;;;;12.13;6.18;;;4.70;99.90;;;;;;5000457;28;20049;-50
2023/03/09 12:14:04;;;;;;;12.68;6.88;;;4.80;99.90;;;;;;4996444;28;20578;-42
2023/03/09 12:16:35;;;;;;;10.05;4.95;;;4.90;99.90;;;;;;4970685;28;20065;-43
2023/03/09 12:19:05;;;;;;;11.00;5.18;;;4.90;99.90;;;;;;5011668;28;20507;-37
2023/03/09 12:21:42;;;;;;;12.05;5.57;;;5.00;99.90;;;;;;5003262;28;20064;-38
2023/03/09 12:24:41;;;;;;;12.50;6.25;;;5.00;99.90;;;;;;5002844;28;20053;-37
2023/03/09 12:27:13;;;;;;;11.32;6.18;;;5.10;99.90;;;;;;4997987;28;20600;-37
2023/03/09 12:30:07;;;;;;;11.57;6.00;;;5.20;99.90;;;;;;4999375;28;20077;-41
2023/03/09 12:32:37;;;;;;;12.32;6.80;;;5.20;99.90;;;;;;4996651;28;20055;-38
2023/03/09 12:35:21;;;;;;;12.18;6.22;;;5.20;99.90;;;;;;5001090;28;20060;-36
2023/03/09 12:37:53;;;;;;;12.10;5.70;;;5.20;99.90;;;;;;4997435;28;20054;-37
2023/03/09 12:40:27;;;;;;;13.07;7.20;;;5.20;99.90;;;;;;5000433;28;20059;-43
2023/03/09 12:42:55;;;;;;;11.60;5.72;;;5.20;99.90;;;;;;4992456;28;20522;-39
2023/03/09 12:45:23;;;;;;;12.45;6.38;;;5.20;99.90;;;;;;5005298;28;20077;-44
2023/03/09 12:47:58;;;;;;;11.50;6.25;;;5.10;99.90;;;;;;4989858;28;20070;-44
2023/03/09 12:50:47;;;;;;;12.10;6.75;;;5.00;99.90;;;;;;4998907;28;20056;-45
2023/03/09 12:53:21;;;;;;;12.15;6.40;;;5.10;99.90;;;;;;4998270;28;21366;-43
2023/03/09 12:55:53;;;;;;;13.20;7.03;;;5.00;99.90;;;;;;4999173;28;20054;-42
2023/03/09 12:58:21;;;;;;;12.63;6.18;;;5.00;99.90;;;;;;5001073;28;20524;-41